createdAt,value
2018-06-16T00:00:28.924Z,0.93
2018-06-16T00:02:58.021Z,1.13
2018-06-16T00:05:26.820Z,1.00
2018-06-16T00:07:55.667Z,1.00
2018-06-16T00:10:24.675Z,1.00
2018-06-16T00:12:53.461Z,0.87
2018-06-16T00:15:22.046Z,0.87
2018-06-16T00:17:50.740Z,1.13
2018-06-16T00:20:19.583Z,0.80
2018-06-16T00:22:48.517Z,0.80
2018-06-16T00:25:17.395Z,1.30
2018-06-16T00:27:46.246Z,1.10
2018-06-16T00:30:15.180Z,1.10
2018-06-16T00:32:43.865Z,0.97
2018-06-16T00:35:12.513Z,1.10
2018-06-16T00:37:41.480Z,1.57
2018-06-16T00:40:10.265Z,1.30
2018-06-16T00:42:39.056Z,1.20
2018-06-16T00:45:08.024Z,1.20
2018-06-16T00:47:37.021Z,1.07
2018-06-16T00:50:05.793Z,1.30
2018-06-16T00:52:34.580Z,1.50
2018-06-16T00:55:03.700Z,1.27
2018-06-16T00:57:37.784Z,1.00
2018-06-16T01:00:06.402Z,1.40
2018-06-16T01:02:35.266Z,1.30
2018-06-16T01:05:04.392Z,1.30
2018-06-16T01:07:32.890Z,1.60
2018-06-16T01:10:01.734Z,1.53
2018-06-16T01:12:30.833Z,1.60
2018-06-16T01:14:59.713Z,1.87
2018-06-16T01:17:28.712Z,1.80
2018-06-16T01:19:58.199Z,1.57
2018-06-16T01:22:27.003Z,1.90
2018-06-16T01:24:56.207Z,1.77
2018-06-16T01:27:24.946Z,2.00
2018-06-16T01:29:53.567Z,2.03
2018-06-16T01:32:22.088Z,1.97
2018-06-16T01:34:50.724Z,1.87
2018-06-16T01:37:19.594Z,1.77
2018-06-16T01:39:48.623Z,2.13
2018-06-16T01:42:17.377Z,1.90
2018-06-16T01:44:46.187Z,2.10
2018-06-16T01:47:21.602Z,1.73
2018-06-16T01:49:50.548Z,2.30
2018-06-16T01:52:19.269Z,2.03
2018-06-16T01:54:48.132Z,2.10
2018-06-16T01:57:16.649Z,2.10
2018-06-16T01:59:45.569Z,2.13
2018-06-16T02:02:14.528Z,2.13
2018-06-16T02:04:43.163Z,1.90
2018-06-16T02:07:12.050Z,1.77
2018-06-16T02:09:40.881Z,1.70
2018-06-16T02:12:09.760Z,2.03
2018-06-16T02:14:38.371Z,2.10
2018-06-16T02:17:07.187Z,2.13
2018-06-16T02:19:35.781Z,2.07
2018-06-16T02:22:04.620Z,1.97
2018-06-16T02:24:33.492Z,2.10
2018-06-16T02:27:02.339Z,2.20
2018-06-16T02:29:31.086Z,2.10
2018-06-16T02:31:59.901Z,2.43
2018-06-16T02:34:28.792Z,2.27
2018-06-16T02:36:57.861Z,2.50
2018-06-16T02:39:26.700Z,2.33
2018-06-16T02:41:55.779Z,2.17
2018-06-16T02:44:24.768Z,2.50
2018-06-16T02:46:53.628Z,2.27
2018-06-16T02:49:22.733Z,2.20
2018-06-16T02:51:51.456Z,2.70
2018-06-16T02:54:20.123Z,2.13
2018-06-16T02:56:49.161Z,2.50
2018-06-16T02:59:18.291Z,2.30
2018-06-16T03:01:47.260Z,2.40
2018-06-16T03:04:15.902Z,2.20
2018-06-16T03:06:44.868Z,2.20
2018-06-16T03:09:13.868Z,2.30
2018-06-16T03:11:42.513Z,2.23
2018-06-16T03:14:11.487Z,2.40
2018-06-16T03:16:40.496Z,2.70
2018-06-16T03:19:09.596Z,2.10
2018-06-16T03:21:38.845Z,2.60
2018-06-16T03:24:07.932Z,2.87
2018-06-16T03:26:36.768Z,2.00
2018-06-16T03:29:05.816Z,2.93
2018-06-16T03:31:34.839Z,2.40
2018-06-16T03:34:03.926Z,2.40
2018-06-16T03:36:32.910Z,2.20
2018-06-16T03:39:01.995Z,2.60
2018-06-16T03:41:30.730Z,2.57
2018-06-16T03:43:59.430Z,2.53
2018-06-16T03:46:28.254Z,2.73
2018-06-16T03:48:57.176Z,2.43
2018-06-16T03:51:26.016Z,2.43
2018-06-16T03:53:54.661Z,2.83
2018-06-16T03:56:23.302Z,2.23
2018-06-16T03:58:52.054Z,2.80
2018-06-16T04:01:20.929Z,2.90
2018-06-16T04:03:50.000Z,2.77
2018-06-16T04:06:18.964Z,2.10
2018-06-16T04:08:47.966Z,2.47
2018-06-16T04:11:16.449Z,3.00
2018-06-16T04:13:45.543Z,2.60
2018-06-16T04:16:14.436Z,2.57
2018-06-16T04:18:43.394Z,2.47
2018-06-16T04:21:12.086Z,3.13
2018-06-16T04:23:40.906Z,2.27
2018-06-16T04:26:09.864Z,2.90
2018-06-16T04:28:38.604Z,2.57
2018-06-16T04:31:07.402Z,2.87
2018-06-16T04:33:36.162Z,2.87
2018-06-16T04:36:04.734Z,3.10
2018-06-16T04:38:33.684Z,3.07
2018-06-16T04:41:02.412Z,2.90
2018-06-16T04:43:30.897Z,2.83
2018-06-16T04:45:59.981Z,2.83
2018-06-16T04:48:28.865Z,3.00
2018-06-16T04:50:57.652Z,3.05
2018-06-16T04:53:26.590Z,3.90
2018-06-16T04:55:55.655Z,3.63
2018-06-16T04:59:01.703Z,3.60
2018-06-16T05:01:46.938Z,3.73
2018-06-16T05:04:16.053Z,3.87
2018-06-16T05:06:45.097Z,3.60
2018-06-16T05:09:14.188Z,6.03
2018-06-16T05:11:43.195Z,3.57
2018-06-16T05:14:12.178Z,3.70
2018-06-16T05:16:41.151Z,4.10
2018-06-16T05:19:10.437Z,4.30
2018-06-16T05:21:39.349Z,4.30
2018-06-16T05:24:08.349Z,4.43
2018-06-16T05:26:37.142Z,3.87
2018-06-16T05:29:05.912Z,3.90
2018-06-16T05:31:34.915Z,3.83
2018-06-16T05:34:03.853Z,4.40
2018-06-16T05:36:32.543Z,4.10
2018-06-16T05:39:01.225Z,4.97
2018-06-16T05:41:30.114Z,4.23
2018-06-16T05:43:58.892Z,4.40
2018-06-16T05:46:27.642Z,5.00
2018-06-16T05:48:56.384Z,4.97
2018-06-16T05:51:25.419Z,4.63
2018-06-16T05:53:54.094Z,5.10
2018-06-16T05:56:22.648Z,4.47
2018-06-16T05:58:51.503Z,4.20
2018-06-16T06:01:20.293Z,4.53
2018-06-16T06:03:48.753Z,3.87
2018-06-16T06:06:17.557Z,4.13
2018-06-16T06:08:46.217Z,4.37
2018-06-16T06:11:14.969Z,4.50
2018-06-16T06:13:43.593Z,4.30
2018-06-16T06:16:12.376Z,4.10
2018-06-16T06:18:40.858Z,6.50
2018-06-16T06:21:09.443Z,4.30
2018-06-16T06:23:38.022Z,3.77
2018-06-16T06:26:06.607Z,3.97
2018-06-16T06:28:35.182Z,3.87
2018-06-16T06:31:04.082Z,4.20
2018-06-16T06:33:32.664Z,3.97
2018-06-16T06:36:05.464Z,4.23
2018-06-16T06:38:34.030Z,3.77
2018-06-16T06:41:02.565Z,3.60
2018-06-16T06:43:31.209Z,3.47
2018-06-16T06:46:01.062Z,3.80
2018-06-16T06:48:29.443Z,3.70
2018-06-16T06:50:58.788Z,3.23
2018-06-16T06:53:27.471Z,3.10
2018-06-16T06:55:55.958Z,3.23
2018-06-16T06:58:24.432Z,3.47
2018-06-16T07:00:52.918Z,3.40
2018-06-16T07:03:21.334Z,3.73
2018-06-16T07:05:49.813Z,3.80
2018-06-16T07:08:18.514Z,3.47
2018-06-16T07:10:47.299Z,3.20
2018-06-16T07:13:16.035Z,2.90
2018-06-16T07:15:44.510Z,3.20
2018-06-16T07:18:13.092Z,3.27
2018-06-16T07:20:41.675Z,3.30
2018-06-16T07:23:10.283Z,3.43
2018-06-16T07:25:38.966Z,3.20
2018-06-16T07:28:07.430Z,3.20
2018-06-16T07:30:36.113Z,3.33
2018-06-16T07:33:04.670Z,3.23
2018-06-16T07:35:33.380Z,3.33
2018-06-16T07:38:02.074Z,3.63
2018-06-16T07:40:30.553Z,3.73
2018-06-16T07:42:59.065Z,3.47
2018-06-16T07:45:27.608Z,3.40
2018-06-16T07:47:56.195Z,4.00
2018-06-16T07:50:24.777Z,3.87
2018-06-16T07:52:53.475Z,3.83
2018-06-16T07:55:21.946Z,3.17
2018-06-16T07:57:50.525Z,3.40
2018-06-16T08:00:19.108Z,3.63
2018-06-16T08:02:47.804Z,3.40
2018-06-16T08:05:16.376Z,3.70
2018-06-16T08:07:44.960Z,3.53
2018-06-16T08:10:13.541Z,3.30
2018-06-16T08:12:41.979Z,3.60
2018-06-16T08:15:10.528Z,3.13
2018-06-16T08:17:39.190Z,2.80
2018-06-16T08:20:07.772Z,2.93
2018-06-16T08:22:36.267Z,3.20
2018-06-16T08:25:04.771Z,3.00
2018-06-16T08:27:33.222Z,3.47
2018-06-16T08:30:01.863Z,3.60
2018-06-16T08:32:30.481Z,2.60
2018-06-16T08:34:59.218Z,3.00
2018-06-16T08:37:27.777Z,2.97
2018-06-16T08:39:56.150Z,3.43
2018-06-16T08:42:24.832Z,2.90
2018-06-16T08:44:53.246Z,2.57
2018-06-16T08:47:21.981Z,3.33
2018-06-16T08:49:50.463Z,2.90
2018-06-16T08:52:18.889Z,2.80
2018-06-16T08:54:47.328Z,5.47
2018-06-16T08:57:15.557Z,2.30
2018-06-16T08:59:44.173Z,3.07
2018-06-16T09:02:12.572Z,2.37
2018-06-16T09:04:41.140Z,2.30
2018-06-16T09:07:09.719Z,2.20
2018-06-16T09:09:38.243Z,2.50
2018-06-16T09:12:06.885Z,2.63
2018-06-16T09:14:35.282Z,3.27
2018-06-16T09:17:03.745Z,2.60
2018-06-16T09:19:32.331Z,2.93
2018-06-16T09:22:00.814Z,2.50
2018-06-16T09:24:29.393Z,2.33
2018-06-16T09:26:57.974Z,2.73
2018-06-16T09:29:26.556Z,2.20
2018-06-16T09:31:55.141Z,2.30
2018-06-16T09:34:23.623Z,2.20
2018-06-16T09:36:52.064Z,2.30
2018-06-16T09:39:20.687Z,3.07
2018-06-16T09:41:49.266Z,2.60
2018-06-16T09:44:17.948Z,2.50
2018-06-16T09:46:46.550Z,3.10
2018-06-16T09:49:15.028Z,2.70
2018-06-16T09:51:43.598Z,2.90
2018-06-16T09:54:12.077Z,3.20
2018-06-16T09:56:40.558Z,2.27
2018-06-16T09:59:09.244Z,2.63
2018-06-16T10:01:37.654Z,2.13
2018-06-16T10:04:06.042Z,2.20
2018-06-16T10:06:34.490Z,2.37
2018-06-16T10:09:03.081Z,2.40
2018-06-16T10:11:31.576Z,2.50
2018-06-16T10:14:00.055Z,2.47
2018-06-16T10:16:28.607Z,3.03
2018-06-16T10:18:57.188Z,2.77
2018-06-16T10:21:25.689Z,2.60
2018-06-16T10:23:54.007Z,2.80
2018-06-16T10:26:22.635Z,2.40
2018-06-16T10:28:51.216Z,2.60
2018-06-16T10:31:19.633Z,2.40
2018-06-16T10:33:48.178Z,2.70
2018-06-16T10:36:16.714Z,2.90
2018-06-16T10:38:45.339Z,3.60
2018-06-16T10:41:15.016Z,3.90
2018-06-16T10:43:43.643Z,4.43
2018-06-16T10:46:12.321Z,5.10
2018-06-16T10:48:40.903Z,6.43
2018-06-16T10:51:09.487Z,5.10
2018-06-16T10:53:37.965Z,4.73
2018-06-16T10:56:06.449Z,4.60
2018-06-16T10:58:34.838Z,4.80
2018-06-16T11:01:03.409Z,4.37
2018-06-16T11:03:31.998Z,5.07
2018-06-16T11:06:00.380Z,4.43
2018-06-16T11:08:28.965Z,4.50
2018-06-16T11:10:57.640Z,4.17
2018-06-16T11:13:26.220Z,4.50
2018-06-16T11:15:54.810Z,4.50
2018-06-16T11:18:23.203Z,4.90
2018-06-16T11:20:51.597Z,4.47
2018-06-16T11:23:20.350Z,4.47
2018-06-16T11:25:48.828Z,4.87
2018-06-16T11:28:17.514Z,5.10
2018-06-16T11:30:45.998Z,4.87
2018-06-16T11:33:14.376Z,4.80
2018-06-16T11:35:43.187Z,5.17
2018-06-16T11:38:11.641Z,5.53
2018-06-16T11:40:40.325Z,4.73
2018-06-16T11:43:08.910Z,4.87
2018-06-16T11:45:37.387Z,10.03
2018-06-16T11:48:05.971Z,4.70
2018-06-16T11:50:34.656Z,4.83
2018-06-16T11:53:03.343Z,5.10
2018-06-16T11:55:31.786Z,5.17
2018-06-16T11:58:00.407Z,5.10
2018-06-16T12:00:28.990Z,4.20
2018-06-16T12:02:57.586Z,4.97
2018-06-16T12:05:26.154Z,3.90
2018-06-16T12:07:54.738Z,5.30
2018-06-16T12:10:23.325Z,5.30
2018-06-16T12:12:51.904Z,6.10
2018-06-16T12:15:20.486Z,6.00
2018-06-16T12:17:49.172Z,8.37
2018-06-16T12:20:17.855Z,19.47
2018-06-16T12:22:46.342Z,9.97
2018-06-16T12:25:14.923Z,4.50
2018-06-16T12:27:43.504Z,4.70
2018-06-16T12:30:11.886Z,4.57
2018-06-16T12:32:40.314Z,5.60
2018-06-16T12:35:08.844Z,4.60
2018-06-16T12:37:37.425Z,5.47
2018-06-16T12:40:05.866Z,4.10
2018-06-16T12:42:34.392Z,4.83
2018-06-16T12:45:02.969Z,3.50
2018-06-16T12:47:31.758Z,3.87
2018-06-16T12:50:00.236Z,3.87
2018-06-16T12:52:28.818Z,3.97
2018-06-16T12:54:57.106Z,3.30
2018-06-16T12:57:25.502Z,3.77
2018-06-16T12:59:53.964Z,3.10
2018-06-16T13:02:22.539Z,3.33
2018-06-16T13:04:51.119Z,2.13
2018-06-16T13:07:19.804Z,2.20
2018-06-16T13:09:48.597Z,3.70
2018-06-16T13:12:17.291Z,3.60
2018-06-16T13:14:45.969Z,4.37
2018-06-16T13:17:14.589Z,4.60
2018-06-16T13:19:43.134Z,3.60
2018-06-16T13:22:11.569Z,3.53
2018-06-16T13:24:40.197Z,3.50
2018-06-16T13:27:08.781Z,3.77
2018-06-16T13:29:37.361Z,4.10
2018-06-16T13:32:05.947Z,4.80
2018-06-16T13:34:34.431Z,3.80
2018-06-16T13:37:02.917Z,3.90
2018-06-16T13:39:31.591Z,3.70
2018-06-16T13:42:00.114Z,3.83
2018-06-16T13:44:28.493Z,3.50
2018-06-16T13:46:57.136Z,3.20
2018-06-16T13:49:25.716Z,3.10
2018-06-16T13:51:54.152Z,3.10
2018-06-16T13:54:22.677Z,3.40
2018-06-16T13:56:51.273Z,2.93
2018-06-16T13:59:19.846Z,3.50
2018-06-16T14:01:48.427Z,2.90
2018-06-16T14:04:17.007Z,2.73
2018-06-16T14:06:45.604Z,2.73
2018-06-16T14:09:14.175Z,4.47
2018-06-16T14:11:42.661Z,4.10
2018-06-16T14:14:11.164Z,4.17
2018-06-16T14:16:39.624Z,3.33
2018-06-16T14:19:08.201Z,3.00
2018-06-16T14:21:36.692Z,4.77
2018-06-16T14:24:05.262Z,4.53
2018-06-16T14:26:33.848Z,3.10
2018-06-16T14:29:02.232Z,3.53
2018-06-16T14:31:30.807Z,3.03
2018-06-16T14:33:59.128Z,3.67
2018-06-16T14:36:27.682Z,2.93
2018-06-16T14:38:56.253Z,3.30
2018-06-16T14:41:24.932Z,3.80
2018-06-16T14:43:54.438Z,3.60
2018-06-16T14:46:23.021Z,5.10
2018-06-16T14:48:51.616Z,3.57
2018-06-16T14:51:20.192Z,4.03
2018-06-16T14:53:48.773Z,3.60
2018-06-16T14:56:18.024Z,4.13
2018-06-16T14:58:46.789Z,3.83
2018-06-16T15:01:15.249Z,3.20
2018-06-16T15:03:43.715Z,3.10
2018-06-16T15:06:12.195Z,2.57
2018-06-16T15:08:40.672Z,3.30
2018-06-16T15:11:09.464Z,3.00
2018-06-16T15:13:38.221Z,2.70
2018-06-16T15:16:06.901Z,3.43
2018-06-16T15:18:36.378Z,5.80
2018-06-16T15:21:05.081Z,4.60
2018-06-16T15:23:33.713Z,4.27
2018-06-16T15:26:02.043Z,3.87
2018-06-16T15:28:30.671Z,4.50
2018-06-16T15:30:59.258Z,4.40
2018-06-16T15:33:27.742Z,4.10
2018-06-16T15:35:56.463Z,4.43
2018-06-16T15:38:24.911Z,4.63
2018-06-16T15:40:53.397Z,4.50
2018-06-16T15:43:22.072Z,4.90
2018-06-16T15:45:50.554Z,5.13
2018-06-16T15:48:19.027Z,4.70
2018-06-16T15:50:47.612Z,4.40
2018-06-16T15:53:16.196Z,5.17
2018-06-16T15:55:44.779Z,4.93
2018-06-16T15:58:13.363Z,4.80
2018-06-16T16:00:41.946Z,5.30
2018-06-16T16:03:10.430Z,4.57
2018-06-16T16:05:39.009Z,4.33
2018-06-16T16:08:07.592Z,4.33
2018-06-16T16:10:36.174Z,4.83
2018-06-16T16:13:04.757Z,3.93
2018-06-16T16:15:33.343Z,4.60
2018-06-16T16:18:01.931Z,4.33
2018-06-16T16:20:30.359Z,4.17
2018-06-16T16:22:58.989Z,8.03
2018-06-16T16:25:27.567Z,16.17
2018-06-16T16:27:56.049Z,12.13
2018-06-16T16:30:24.667Z,12.17
2018-06-16T16:32:53.213Z,6.60
2018-06-16T16:35:21.805Z,4.57
2018-06-16T16:37:50.484Z,4.70
2018-06-16T16:40:18.986Z,4.60
2018-06-16T16:42:47.554Z,4.07
2018-06-16T16:45:16.030Z,4.70
2018-06-16T16:47:44.509Z,4.77
2018-06-16T16:50:12.991Z,4.50
2018-06-16T16:52:41.777Z,5.00
2018-06-16T16:55:10.359Z,5.03
2018-06-16T16:57:38.967Z,4.80
2018-06-16T17:00:07.424Z,5.60
2018-06-16T17:02:36.025Z,5.13
2018-06-16T17:05:04.440Z,4.13
2018-06-16T17:07:32.966Z,4.40
2018-06-16T17:10:01.456Z,4.40
2018-06-16T17:12:30.035Z,4.40
2018-06-16T17:14:58.444Z,4.27
2018-06-16T17:17:26.992Z,4.07
2018-06-16T17:19:55.469Z,4.60
2018-06-16T17:22:23.983Z,4.20
2018-06-16T17:24:52.658Z,3.83
2018-06-16T17:27:21.222Z,4.10
2018-06-16T17:29:49.721Z,4.00
2018-06-16T17:32:18.288Z,3.80
2018-06-16T17:34:47.278Z,4.00
2018-06-16T17:37:15.753Z,3.80
2018-06-16T17:39:44.344Z,4.23
2018-06-16T17:42:13.029Z,4.37
2018-06-16T17:44:41.525Z,4.97
2018-06-16T17:47:09.946Z,4.10
2018-06-16T17:49:38.775Z,3.90
2018-06-16T17:52:07.258Z,3.80
2018-06-16T17:54:35.743Z,3.40
2018-06-16T17:57:04.225Z,3.80
2018-06-16T17:59:32.816Z,3.90
2018-06-16T18:02:01.379Z,3.97
2018-06-16T18:04:29.964Z,4.47
2018-06-16T18:06:58.373Z,4.23
2018-06-16T18:09:26.906Z,5.23
2018-06-16T18:11:55.536Z,4.80
2018-06-16T18:14:23.987Z,5.13
2018-06-16T18:16:52.421Z,4.93
2018-06-16T18:19:21.157Z,4.23
2018-06-16T18:21:49.740Z,4.37
2018-06-16T18:24:18.426Z,3.77
2018-06-16T18:26:46.865Z,4.40
2018-06-16T18:29:15.591Z,4.77
2018-06-16T18:31:44.175Z,5.60
2018-06-16T18:34:12.595Z,5.53
2018-06-16T18:36:41.237Z,4.77
2018-06-16T18:39:10.686Z,5.40
2018-06-16T18:41:39.541Z,7.07
2018-06-16T18:44:08.012Z,4.43
2018-06-16T18:46:36.901Z,3.63
2018-06-16T18:49:05.393Z,3.70
2018-06-16T18:51:33.960Z,3.23
2018-06-16T18:54:02.405Z,3.53
2018-06-16T18:56:30.921Z,3.63
2018-06-16T18:58:59.508Z,3.97
2018-06-16T19:01:28.010Z,3.50
2018-06-16T19:03:56.571Z,4.17
2018-06-16T19:06:25.156Z,4.37
2018-06-16T19:08:53.738Z,4.80
2018-06-16T19:11:22.318Z,3.73
2018-06-16T19:13:50.799Z,4.77
2018-06-16T19:16:19.280Z,5.53
2018-06-16T19:18:47.606Z,3.97
2018-06-16T19:21:16.057Z,4.60
2018-06-16T19:23:44.620Z,3.70
2018-06-16T19:26:13.201Z,4.33
2018-06-16T19:28:41.737Z,4.40
2018-06-16T19:31:10.272Z,4.40
2018-06-16T19:33:38.753Z,4.20
2018-06-16T19:36:07.197Z,4.13
2018-06-16T19:38:35.808Z,4.78
2018-06-16T19:41:04.295Z,4.10
2018-06-16T19:43:32.685Z,3.93
2018-06-16T19:46:01.162Z,3.53
2018-06-16T19:48:29.729Z,4.20
2018-06-16T19:50:58.318Z,3.67
2018-06-16T19:53:26.913Z,4.07
2018-06-16T19:55:55.480Z,3.77
2018-06-16T19:58:24.067Z,4.47
2018-06-16T20:00:52.561Z,3.87
2018-06-16T20:03:21.231Z,4.20
2018-06-16T20:05:49.815Z,4.10
2018-06-16T20:08:18.293Z,4.30
2018-06-16T20:10:47.823Z,4.10
2018-06-16T20:13:16.390Z,4.07
2018-06-16T20:15:45.638Z,4.40
2018-06-16T20:18:14.160Z,4.50
2018-06-16T20:20:42.744Z,4.10
2018-06-16T20:23:11.255Z,4.27
2018-06-16T20:25:39.918Z,5.10
2018-06-16T20:28:08.494Z,4.63
2018-06-16T20:30:37.073Z,4.50
2018-06-16T20:33:05.660Z,4.10
2018-06-16T20:35:34.097Z,5.53
2018-06-16T20:38:02.822Z,5.03
2018-06-16T20:40:31.407Z,5.87
2018-06-16T20:43:00.604Z,6.00
2018-06-16T20:45:29.084Z,6.40
2018-06-16T20:47:57.774Z,5.73
2018-06-16T20:50:26.187Z,6.00
2018-06-16T20:52:54.732Z,5.53
2018-06-16T20:55:23.417Z,6.40
2018-06-16T20:57:51.842Z,5.10
2018-06-16T21:00:20.484Z,5.57
2018-06-16T21:02:48.969Z,5.93
2018-06-16T21:05:17.436Z,5.23
2018-06-16T21:07:46.124Z,5.43
2018-06-16T21:10:14.812Z,5.07
2018-06-16T21:12:43.498Z,4.90
2018-06-16T21:15:12.094Z,5.90
2018-06-16T21:17:40.642Z,5.60
2018-06-16T21:20:09.454Z,5.00
2018-06-16T21:22:38.032Z,4.90
2018-06-16T21:25:06.626Z,6.03
2018-06-16T21:27:35.204Z,5.33
2018-06-16T21:30:03.849Z,4.57
2018-06-16T21:32:32.468Z,4.63
2018-06-16T21:35:00.999Z,5.03
2018-06-16T21:37:29.427Z,4.80
2018-06-16T21:39:58.014Z,4.83
2018-06-16T21:42:26.698Z,5.67
2018-06-16T21:44:55.382Z,5.50
2018-06-16T21:47:23.862Z,5.30
2018-06-16T21:49:52.445Z,5.20
2018-06-16T21:52:21.034Z,5.80
2018-06-16T21:54:49.521Z,6.80
2018-06-16T21:57:18.516Z,5.80
2018-06-16T21:59:47.319Z,5.57
2018-06-16T22:02:16.202Z,8.30
2018-06-16T22:04:44.988Z,5.00
2018-06-16T22:07:13.793Z,5.80
2018-06-16T22:09:42.491Z,6.20
2018-06-16T22:12:11.181Z,9.03
2018-06-16T22:14:39.813Z,5.97
2018-06-16T22:17:08.606Z,6.13
2018-06-16T22:19:37.203Z,5.00
2018-06-16T22:22:05.869Z,5.30
2018-06-16T22:24:34.550Z,5.33
2018-06-16T22:27:03.584Z,5.70
2018-06-16T22:29:32.474Z,6.03
2018-06-16T22:32:01.346Z,5.30
2018-06-16T22:34:29.919Z,5.57
2018-06-16T22:36:58.605Z,6.47
2018-06-16T22:39:27.401Z,5.93
2018-06-16T22:41:55.925Z,5.93
2018-06-16T22:44:24.655Z,6.00
2018-06-16T22:46:53.348Z,6.40
2018-06-16T22:49:22.151Z,6.87
2018-06-16T22:51:50.836Z,6.37
2018-06-16T22:54:19.896Z,6.70
2018-06-16T22:56:49.201Z,8.77
2018-06-16T22:59:17.906Z,10.10
2018-06-16T23:01:46.800Z,6.50
2018-06-16T23:04:22.563Z,10.23
2018-06-16T23:06:51.509Z,9.87
2018-06-16T23:09:20.087Z,7.00
2018-06-16T23:11:48.698Z,7.73
2018-06-16T23:14:17.475Z,8.43
2018-06-16T23:16:46.357Z,12.13
2018-06-16T23:19:15.049Z,13.40
2018-06-16T23:21:43.525Z,8.00
2018-06-16T23:24:12.335Z,8.53
2018-06-16T23:26:40.724Z,7.87
2018-06-16T23:29:09.634Z,7.77
2018-06-16T23:31:38.351Z,8.20
2018-06-16T23:34:07.067Z,7.83
2018-06-16T23:36:35.796Z,7.83
2018-06-16T23:39:06.591Z,7.03
2018-06-16T23:41:35.617Z,7.37
2018-06-16T23:44:04.358Z,7.47
2018-06-16T23:46:33.157Z,7.50
2018-06-16T23:49:02.153Z,7.17
2018-06-16T23:51:31.042Z,7.37
2018-06-16T23:54:00.132Z,7.50
2018-06-16T23:56:29.013Z,7.63
2018-06-16T23:58:58.214Z,7.40
